sensor_id;sensor_type;location;lat;lon;timestamp;P1;durP1;ratioP1;P2;durP2;ratioP2
19942;SDS011;10133;50.956;17.276;2023-02-10T00:01:08;26.03;;;12.27;;
19942;SDS011;10133;50.956;17.276;2023-02-10T00:03:52;26.60;;;12.23;;
19942;SDS011;10133;50.956;17.276;2023-02-10T00:06:20;28.77;;;12.33;;
19942;SDS011;10133;50.956;17.276;2023-02-10T00:08:50;29.07;;;12.93;;
19942;SDS011;10133;50.956;17.276;2023-02-10T00:11:19;29.77;;;13.73;;
19942;SDS011;10133;50.956;17.276;2023-02-10T00:13:45;28.53;;;12.53;;
19942;SDS011;10133;50.956;17.276;2023-02-10T00:16:13;31.77;;;13.23;;
19942;SDS011;10133;50.956;17.276;2023-02-10T00:18:41;26.17;;;12.30;;
19942;SDS011;10133;50.956;17.276;2023-02-10T00:21:09;26.43;;;12.23;;
19942;SDS011;10133;50.956;17.276;2023-02-10T00:23:40;26.73;;;12.70;;
19942;SDS011;10133;50.956;17.276;2023-02-10T00:26:09;25.43;;;11.50;;
19942;SDS011;10133;50.956;17.276;2023-02-10T00:28:39;28.50;;;12.60;;
19942;SDS011;10133;50.956;17.276;2023-02-10T00:31:06;24.07;;;12.10;;
19942;SDS011;10133;50.956;17.276;2023-02-10T00:33:45;23.57;;;11.00;;
19942;SDS011;10133;50.956;17.276;2023-02-10T00:36:12;25.83;;;12.30;;
19942;SDS011;10133;50.956;17.276;2023-02-10T00:38:40;25.43;;;12.80;;
19942;SDS011;10133;50.956;17.276;2023-02-10T00:41:09;35.47;;;15.63;;
19942;SDS011;10133;50.956;17.276;2023-02-10T00:43:46;40.87;;;17.07;;
19942;SDS011;10133;50.956;17.276;2023-02-10T00:46:14;43.00;;;17.77;;
19942;SDS011;10133;50.956;17.276;2023-02-10T00:48:42;37.37;;;15.37;;
19942;SDS011;10133;50.956;17.276;2023-02-10T00:51:10;33.30;;;14.60;;
19942;SDS011;10133;50.956;17.276;2023-02-10T00:53:38;31.47;;;13.47;;
19942;SDS011;10133;50.956;17.276;2023-02-10T00:56:05;25.37;;;12.77;;
19942;SDS011;10133;50.956;17.276;2023-02-10T00:58:33;27.23;;;12.30;;
19942;SDS011;10133;50.956;17.276;2023-02-10T01:00:59;27.17;;;13.00;;
19942;SDS011;10133;50.956;17.276;2023-02-10T01:03:26;21.63;;;11.93;;
19942;SDS011;10133;50.956;17.276;2023-02-10T01:05:53;27.50;;;12.53;;
19942;SDS011;10133;50.956;17.276;2023-02-10T01:08:20;28.27;;;12.73;;
19942;SDS011;10133;50.956;17.276;2023-02-10T01:10:47;25.80;;;12.40;;
19942;SDS011;10133;50.956;17.276;2023-02-10T01:13:14;27.93;;;12.47;;
19942;SDS011;10133;50.956;17.276;2023-02-10T01:15:45;28.00;;;12.50;;
19942;SDS011;10133;50.956;17.276;2023-02-10T01:18:13;27.47;;;12.63;;
19942;SDS011;10133;50.956;17.276;2023-02-10T01:20:41;27.07;;;12.20;;
19942;SDS011;10133;50.956;17.276;2023-02-10T01:23:08;26.43;;;12.37;;
19942;SDS011;10133;50.956;17.276;2023-02-10T01:25:36;24.20;;;11.40;;
19942;SDS011;10133;50.956;17.276;2023-02-10T01:28:04;22.07;;;11.17;;
19942;SDS011;10133;50.956;17.276;2023-02-10T01:30:32;25.17;;;12.03;;
19942;SDS011;10133;50.956;17.276;2023-02-10T01:33:00;23.63;;;11.73;;
19942;SDS011;10133;50.956;17.276;2023-02-10T01:35:27;25.53;;;12.13;;
19942;SDS011;10133;50.956;17.276;2023-02-10T01:37:54;22.97;;;11.17;;
19942;SDS011;10133;50.956;17.276;2023-02-10T01:40:22;21.60;;;10.37;;
19942;SDS011;10133;50.956;17.276;2023-02-10T01:42:51;23.77;;;11.43;;
19942;SDS011;10133;50.956;17.276;2023-02-10T01:45:31;23.83;;;11.50;;
19942;SDS011;10133;50.956;17.276;2023-02-10T01:48:02;24.07;;;11.40;;
19942;SDS011;10133;50.956;17.276;2023-02-10T01:50:31;25.53;;;10.97;;
19942;SDS011;10133;50.956;17.276;2023-02-10T01:53:06;23.73;;;11.20;;
19942;SDS011;10133;50.956;17.276;2023-02-10T01:55:34;25.67;;;11.40;;
19942;SDS011;10133;50.956;17.276;2023-02-10T01:58:04;19.53;;;10.43;;
19942;SDS011;10133;50.956;17.276;2023-02-10T02:00:34;31.73;;;13.57;;
19942;SDS011;10133;50.956;17.276;2023-02-10T02:03:01;31.40;;;14.20;;
19942;SDS011;10133;50.956;17.276;2023-02-10T02:05:31;31.57;;;12.67;;
19942;SDS011;10133;50.956;17.276;2023-02-10T02:08:05;27.63;;;12.63;;
19942;SDS011;10133;50.956;17.276;2023-02-10T02:10:42;24.13;;;11.60;;
19942;SDS011;10133;50.956;17.276;2023-02-10T02:18:47;22.40;;;10.93;;
19942;SDS011;10133;50.956;17.276;2023-02-10T02:33:00;23.73;;;10.87;;
19942;SDS011;10133;50.956;17.276;2023-02-10T02:38:39;25.90;;;11.60;;
19942;SDS011;10133;50.956;17.276;2023-02-10T02:41:07;24.70;;;11.70;;
19942;SDS011;10133;50.956;17.276;2023-02-10T02:43:35;22.27;;;11.73;;
19942;SDS011;10133;50.956;17.276;2023-02-10T02:48:57;24.17;;;11.27;;
19942;SDS011;10133;50.956;17.276;2023-02-10T02:51:50;20.83;;;10.87;;
19942;SDS011;10133;50.956;17.276;2023-02-10T02:57:07;23.63;;;12.43;;
19942;SDS011;10133;50.956;17.276;2023-02-10T03:02:32;24.53;;;12.27;;
19942;SDS011;10133;50.956;17.276;2023-02-10T03:05:01;27.93;;;12.17;;
19942;SDS011;10133;50.956;17.276;2023-02-10T03:07:28;25.73;;;11.67;;
19942;SDS011;10133;50.956;17.276;2023-02-10T03:09:55;23.57;;;11.77;;
19942;SDS011;10133;50.956;17.276;2023-02-10T03:12:22;25.97;;;11.80;;
19942;SDS011;10133;50.956;17.276;2023-02-10T03:14:49;26.90;;;12.23;;
19942;SDS011;10133;50.956;17.276;2023-02-10T03:17:16;22.47;;;10.90;;
19942;SDS011;10133;50.956;17.276;2023-02-10T03:19:43;25.57;;;11.90;;
19942;SDS011;10133;50.956;17.276;2023-02-10T03:22:09;24.33;;;12.10;;
19942;SDS011;10133;50.956;17.276;2023-02-10T03:24:37;22.77;;;11.10;;
19942;SDS011;10133;50.956;17.276;2023-02-10T03:27:04;21.10;;;10.83;;
19942;SDS011;10133;50.956;17.276;2023-02-10T03:29:31;24.43;;;12.03;;
19942;SDS011;10133;50.956;17.276;2023-02-10T03:31:58;22.67;;;11.30;;
19942;SDS011;10133;50.956;17.276;2023-02-10T03:34:28;25.03;;;11.63;;
19942;SDS011;10133;50.956;17.276;2023-02-10T03:36:54;24.63;;;11.33;;
19942;SDS011;10133;50.956;17.276;2023-02-10T03:39:21;25.07;;;11.60;;
19942;SDS011;10133;50.956;17.276;2023-02-10T03:41:48;27.53;;;12.33;;
19942;SDS011;10133;50.956;17.276;2023-02-10T03:44:15;25.57;;;11.67;;
19942;SDS011;10133;50.956;17.276;2023-02-10T03:46:42;25.57;;;12.03;;
19942;SDS011;10133;50.956;17.276;2023-02-10T03:49:09;30.60;;;12.13;;
19942;SDS011;10133;50.956;17.276;2023-02-10T03:51:36;25.40;;;11.70;;
19942;SDS011;10133;50.956;17.276;2023-02-10T03:54:03;29.73;;;11.40;;
19942;SDS011;10133;50.956;17.276;2023-02-10T03:56:29;26.33;;;11.03;;
19942;SDS011;10133;50.956;17.276;2023-02-10T03:58:59;26.37;;;12.83;;
19942;SDS011;10133;50.956;17.276;2023-02-10T04:01:30;29.00;;;13.03;;
19942;SDS011;10133;50.956;17.276;2023-02-10T04:03:57;25.90;;;12.47;;
19942;SDS011;10133;50.956;17.276;2023-02-10T04:06:24;28.97;;;13.90;;
19942;SDS011;10133;50.956;17.276;2023-02-10T04:08:51;26.60;;;12.53;;
19942;SDS011;10133;50.956;17.276;2023-02-10T04:11:18;29.37;;;14.50;;
19942;SDS011;10133;50.956;17.276;2023-02-10T04:13:45;38.23;;;16.87;;
19942;SDS011;10133;50.956;17.276;2023-02-10T04:16:13;31.47;;;14.03;;
19942;SDS011;10133;50.956;17.276;2023-02-10T04:18:42;35.93;;;14.37;;
19942;SDS011;10133;50.956;17.276;2023-02-10T04:21:09;35.03;;;14.37;;
19942;SDS011;10133;50.956;17.276;2023-02-10T04:23:38;33.50;;;14.37;;
19942;SDS011;10133;50.956;17.276;2023-02-10T04:26:04;29.73;;;13.37;;
19942;SDS011;10133;50.956;17.276;2023-02-10T04:28:31;28.10;;;13.13;;
19942;SDS011;10133;50.956;17.276;2023-02-10T04:30:59;27.70;;;12.70;;
19942;SDS011;10133;50.956;17.276;2023-02-10T04:33:26;26.20;;;12.43;;
19942;SDS011;10133;50.956;17.276;2023-02-10T04:35:54;24.83;;;11.57;;
19942;SDS011;10133;50.956;17.276;2023-02-10T04:38:21;27.23;;;12.63;;
19942;SDS011;10133;50.956;17.276;2023-02-10T04:40:49;29.13;;;13.60;;
19942;SDS011;10133;50.956;17.276;2023-02-10T04:43:16;26.67;;;13.33;;
19942;SDS011;10133;50.956;17.276;2023-02-10T04:45:43;28.10;;;13.00;;
19942;SDS011;10133;50.956;17.276;2023-02-10T04:48:10;25.27;;;11.83;;
19942;SDS011;10133;50.956;17.276;2023-02-10T04:50:37;24.93;;;12.13;;
19942;SDS011;10133;50.956;17.276;2023-02-10T04:53:04;29.73;;;13.37;;
19942;SDS011;10133;50.956;17.276;2023-02-10T04:55:32;25.97;;;12.50;;
19942;SDS011;10133;50.956;17.276;2023-02-10T04:57:59;26.53;;;12.60;;
19942;SDS011;10133;50.956;17.276;2023-02-10T05:00:27;26.97;;;12.83;;
19942;SDS011;10133;50.956;17.276;2023-02-10T05:02:54;24.63;;;12.63;;
19942;SDS011;10133;50.956;17.276;2023-02-10T05:05:22;26.20;;;11.73;;
19942;SDS011;10133;50.956;17.276;2023-02-10T05:07:51;30.90;;;13.63;;
19942;SDS011;10133;50.956;17.276;2023-02-10T05:10:18;24.53;;;12.40;;
19942;SDS011;10133;50.956;17.276;2023-02-10T05:12:46;27.43;;;11.97;;
19942;SDS011;10133;50.956;17.276;2023-02-10T05:15:13;30.87;;;13.53;;
19942;SDS011;10133;50.956;17.276;2023-02-10T05:17:40;30.00;;;13.30;;
19942;SDS011;10133;50.956;17.276;2023-02-10T05:20:07;30.90;;;12.87;;
19942;SDS011;10133;50.956;17.276;2023-02-10T05:22:35;28.23;;;12.60;;
19942;SDS011;10133;50.956;17.276;2023-02-10T05:25:03;31.57;;;13.13;;
19942;SDS011;10133;50.956;17.276;2023-02-10T05:27:30;29.47;;;13.33;;
19942;SDS011;10133;50.956;17.276;2023-02-10T05:29:57;32.50;;;13.20;;
19942;SDS011;10133;50.956;17.276;2023-02-10T05:32:23;29.63;;;13.67;;
19942;SDS011;10133;50.956;17.276;2023-02-10T05:34:51;30.73;;;13.23;;
19942;SDS011;10133;50.956;17.276;2023-02-10T05:37:18;32.80;;;15.60;;
19942;SDS011;10133;50.956;17.276;2023-02-10T05:39:45;35.57;;;15.70;;
19942;SDS011;10133;50.956;17.276;2023-02-10T05:42:12;30.50;;;14.00;;
19942;SDS011;10133;50.956;17.276;2023-02-10T05:44:38;37.47;;;15.53;;
19942;SDS011;10133;50.956;17.276;2023-02-10T05:47:05;29.50;;;13.53;;
19942;SDS011;10133;50.956;17.276;2023-02-10T05:49:32;33.20;;;13.70;;
19942;SDS011;10133;50.956;17.276;2023-02-10T05:51:59;30.00;;;12.77;;
19942;SDS011;10133;50.956;17.276;2023-02-10T05:54:26;32.83;;;13.20;;
19942;SDS011;10133;50.956;17.276;2023-02-10T05:56:53;33.13;;;14.57;;
19942;SDS011;10133;50.956;17.276;2023-02-10T05:59:20;30.27;;;14.57;;
19942;SDS011;10133;50.956;17.276;2023-02-10T06:01:47;34.00;;;14.10;;
19942;SDS011;10133;50.956;17.276;2023-02-10T06:04:14;30.67;;;14.17;;
19942;SDS011;10133;50.956;17.276;2023-02-10T06:06:41;29.37;;;13.67;;
19942;SDS011;10133;50.956;17.276;2023-02-10T06:09:08;30.73;;;14.57;;
19942;SDS011;10133;50.956;17.276;2023-02-10T06:11:35;28.57;;;13.83;;
19942;SDS011;10133;50.956;17.276;2023-02-10T06:14:02;30.43;;;14.27;;
19942;SDS011;10133;50.956;17.276;2023-02-10T06:16:29;28.70;;;13.80;;
19942;SDS011;10133;50.956;17.276;2023-02-10T06:18:56;34.37;;;14.23;;
19942;SDS011;10133;50.956;17.276;2023-02-10T06:21:23;29.47;;;14.07;;
19942;SDS011;10133;50.956;17.276;2023-02-10T06:23:50;37.57;;;15.17;;
19942;SDS011;10133;50.956;17.276;2023-02-10T06:26:17;38.00;;;15.10;;
19942;SDS011;10133;50.956;17.276;2023-02-10T06:28:44;32.07;;;14.53;;
19942;SDS011;10133;50.956;17.276;2023-02-10T06:31:11;30.97;;;13.93;;
19942;SDS011;10133;50.956;17.276;2023-02-10T06:33:38;33.87;;;14.20;;
19942;SDS011;10133;50.956;17.276;2023-02-10T06:36:05;35.20;;;15.50;;
19942;SDS011;10133;50.956;17.276;2023-02-10T06:38:34;30.67;;;14.03;;
19942;SDS011;10133;50.956;17.276;2023-02-10T06:41:01;30.10;;;13.37;;
19942;SDS011;10133;50.956;17.276;2023-02-10T06:43:28;37.27;;;14.93;;
19942;SDS011;10133;50.956;17.276;2023-02-10T06:45:55;35.10;;;15.17;;
19942;SDS011;10133;50.956;17.276;2023-02-10T06:48:22;31.30;;;14.60;;
19942;SDS011;10133;50.956;17.276;2023-02-10T06:50:49;36.37;;;15.20;;
19942;SDS011;10133;50.956;17.276;2023-02-10T06:53:16;31.17;;;14.10;;
19942;SDS011;10133;50.956;17.276;2023-02-10T06:55:43;32.27;;;14.83;;
19942;SDS011;10133;50.956;17.276;2023-02-10T06:58:10;34.53;;;14.40;;
19942;SDS011;10133;50.956;17.276;2023-02-10T07:00:37;29.10;;;13.20;;
19942;SDS011;10133;50.956;17.276;2023-02-10T07:03:04;31.13;;;13.63;;
19942;SDS011;10133;50.956;17.276;2023-02-10T07:05:31;30.37;;;14.37;;
19942;SDS011;10133;50.956;17.276;2023-02-10T07:07:58;27.37;;;13.97;;
19942;SDS011;10133;50.956;17.276;2023-02-10T07:10:26;28.70;;;14.07;;
19942;SDS011;10133;50.956;17.276;2023-02-10T07:12:53;33.37;;;13.90;;
19942;SDS011;10133;50.956;17.276;2023-02-10T07:15:22;29.80;;;13.43;;
19942;SDS011;10133;50.956;17.276;2023-02-10T07:17:50;36.97;;;15.10;;
19942;SDS011;10133;50.956;17.276;2023-02-10T07:20:18;29.07;;;13.97;;
19942;SDS011;10133;50.956;17.276;2023-02-10T07:22:45;35.00;;;15.37;;
19942;SDS011;10133;50.956;17.276;2023-02-10T07:25:13;31.17;;;14.63;;
19942;SDS011;10133;50.956;17.276;2023-02-10T07:27:40;32.77;;;14.30;;
19942;SDS011;10133;50.956;17.276;2023-02-10T07:30:07;36.93;;;15.87;;
19942;SDS011;10133;50.956;17.276;2023-02-10T07:32:34;34.13;;;15.47;;
19942;SDS011;10133;50.956;17.276;2023-02-10T07:35:01;31.87;;;14.83;;
19942;SDS011;10133;50.956;17.276;2023-02-10T07:37:28;31.57;;;14.73;;
19942;SDS011;10133;50.956;17.276;2023-02-10T07:39:55;31.67;;;15.03;;
19942;SDS011;10133;50.956;17.276;2023-02-10T07:42:22;34.43;;;15.33;;
19942;SDS011;10133;50.956;17.276;2023-02-10T07:44:49;35.43;;;16.17;;
19942;SDS011;10133;50.956;17.276;2023-02-10T07:47:16;37.87;;;16.70;;
19942;SDS011;10133;50.956;17.276;2023-02-10T07:49:43;34.37;;;16.30;;
19942;SDS011;10133;50.956;17.276;2023-02-10T07:52:09;30.73;;;14.63;;
19942;SDS011;10133;50.956;17.276;2023-02-10T07:54:36;29.23;;;13.93;;
19942;SDS011;10133;50.956;17.276;2023-02-10T07:57:03;30.70;;;14.47;;
19942;SDS011;10133;50.956;17.276;2023-02-10T07:59:30;30.43;;;13.80;;
19942;SDS011;10133;50.956;17.276;2023-02-10T08:01:57;36.73;;;14.90;;
19942;SDS011;10133;50.956;17.276;2023-02-10T08:04:24;34.20;;;13.93;;
19942;SDS011;10133;50.956;17.276;2023-02-10T08:06:51;30.50;;;14.23;;
19942;SDS011;10133;50.956;17.276;2023-02-10T08:09:19;30.10;;;14.03;;
19942;SDS011;10133;50.956;17.276;2023-02-10T08:11:46;29.70;;;14.07;;
19942;SDS011;10133;50.956;17.276;2023-02-10T08:14:13;32.40;;;14.67;;
19942;SDS011;10133;50.956;17.276;2023-02-10T08:16:40;31.50;;;14.00;;
19942;SDS011;10133;50.956;17.276;2023-02-10T08:19:07;29.53;;;13.93;;
19942;SDS011;10133;50.956;17.276;2023-02-10T08:21:34;29.60;;;13.87;;
19942;SDS011;10133;50.956;17.276;2023-02-10T08:24:01;34.07;;;14.17;;
19942;SDS011;10133;50.956;17.276;2023-02-10T08:26:27;33.40;;;13.87;;
19942;SDS011;10133;50.956;17.276;2023-02-10T08:28:54;29.23;;;13.20;;
19942;SDS011;10133;50.956;17.276;2023-02-10T08:31:21;30.13;;;13.50;;
19942;SDS011;10133;50.956;17.276;2023-02-10T08:33:48;31.13;;;13.77;;
19942;SDS011;10133;50.956;17.276;2023-02-10T08:36:16;31.00;;;13.77;;
19942;SDS011;10133;50.956;17.276;2023-02-10T08:38:45;29.87;;;13.83;;
19942;SDS011;10133;50.956;17.276;2023-02-10T08:41:13;28.53;;;15.07;;
19942;SDS011;10133;50.956;17.276;2023-02-10T08:43:41;29.00;;;13.37;;
19942;SDS011;10133;50.956;17.276;2023-02-10T08:46:08;28.93;;;14.13;;
19942;SDS011;10133;50.956;17.276;2023-02-10T08:48:36;27.40;;;13.90;;
19942;SDS011;10133;50.956;17.276;2023-02-10T08:51:09;27.13;;;13.00;;
19942;SDS011;10133;50.956;17.276;2023-02-10T08:53:37;30.60;;;14.73;;
19942;SDS011;10133;50.956;17.276;2023-02-10T08:56:05;28.20;;;14.53;;
19942;SDS011;10133;50.956;17.276;2023-02-10T08:58:35;32.20;;;15.30;;
19942;SDS011;10133;50.956;17.276;2023-02-10T09:01:13;28.07;;;14.50;;
19942;SDS011;10133;50.956;17.276;2023-02-10T09:03:41;29.03;;;14.93;;
19942;SDS011;10133;50.956;17.276;2023-02-10T09:06:19;28.27;;;14.43;;
19942;SDS011;10133;50.956;17.276;2023-02-10T09:09:09;30.00;;;14.63;;
19942;SDS011;10133;50.956;17.276;2023-02-10T09:11:37;29.47;;;14.33;;
19942;SDS011;10133;50.956;17.276;2023-02-10T09:14:04;37.00;;;15.23;;
19942;SDS011;10133;50.956;17.276;2023-02-10T09:16:31;37.23;;;16.57;;
19942;SDS011;10133;50.956;17.276;2023-02-10T09:18:58;34.73;;;16.23;;
19942;SDS011;10133;50.956;17.276;2023-02-10T09:21:25;33.70;;;15.80;;
19942;SDS011;10133;50.956;17.276;2023-02-10T09:24:06;34.80;;;15.37;;
19942;SDS011;10133;50.956;17.276;2023-02-10T09:26:33;30.77;;;15.13;;
19942;SDS011;10133;50.956;17.276;2023-02-10T09:29:00;32.33;;;15.43;;
19942;SDS011;10133;50.956;17.276;2023-02-10T09:31:27;32.73;;;15.83;;
19942;SDS011;10133;50.956;17.276;2023-02-10T09:33:54;35.37;;;16.77;;
19942;SDS011;10133;50.956;17.276;2023-02-10T09:36:21;36.70;;;16.40;;
19942;SDS011;10133;50.956;17.276;2023-02-10T09:38:48;32.83;;;15.37;;
19942;SDS011;10133;50.956;17.276;2023-02-10T09:44:16;36.87;;;18.13;;
19942;SDS011;10133;50.956;17.276;2023-02-10T09:46:55;44.80;;;17.10;;
19942;SDS011;10133;50.956;17.276;2023-02-10T09:53:09;40.43;;;17.30;;
19942;SDS011;10133;50.956;17.276;2023-02-10T09:55:16;36.23;;;16.90;;
19942;SDS011;10133;50.956;17.276;2023-02-10T09:58:36;33.50;;;15.53;;
19942;SDS011;10133;50.956;17.276;2023-02-10T10:03:56;40.27;;;18.33;;
19942;SDS011;10133;50.956;17.276;2023-02-10T10:06:58;42.27;;;19.33;;
19942;SDS011;10133;50.956;17.276;2023-02-10T10:12:07;49.47;;;19.80;;
19942;SDS011;10133;50.956;17.276;2023-02-10T10:14:39;43.07;;;18.30;;
19942;SDS011;10133;50.956;17.276;2023-02-10T10:20:46;41.23;;;18.20;;
19942;SDS011;10133;50.956;17.276;2023-02-10T10:23:27;44.33;;;18.40;;
19942;SDS011;10133;50.956;17.276;2023-02-10T10:32:04;39.87;;;18.27;;
19942;SDS011;10133;50.956;17.276;2023-02-10T10:34:51;35.23;;;18.10;;
19942;SDS011;10133;50.956;17.276;2023-02-10T10:37:20;43.50;;;19.13;;
19942;SDS011;10133;50.956;17.276;2023-02-10T10:39:50;41.37;;;19.27;;
19942;SDS011;10133;50.956;17.276;2023-02-10T10:44:59;42.60;;;19.33;;
19942;SDS011;10133;50.956;17.276;2023-02-10T10:50:21;42.87;;;20.57;;
19942;SDS011;10133;50.956;17.276;2023-02-10T10:52:50;42.33;;;19.87;;
19942;SDS011;10133;50.956;17.276;2023-02-10T10:55:21;44.23;;;20.70;;
19942;SDS011;10133;50.956;17.276;2023-02-10T10:58:02;44.30;;;21.87;;
19942;SDS011;10133;50.956;17.276;2023-02-10T11:00:58;39.17;;;18.53;;
19942;SDS011;10133;50.956;17.276;2023-02-10T11:03:27;36.00;;;16.23;;
19942;SDS011;10133;50.956;17.276;2023-02-10T11:06:06;31.20;;;15.03;;
19942;SDS011;10133;50.956;17.276;2023-02-10T11:08:39;33.87;;;14.80;;
19942;SDS011;10133;50.956;17.276;2023-02-10T11:11:14;44.93;;;20.10;;
19942;SDS011;10133;50.956;17.276;2023-02-10T11:14:02;45.00;;;20.10;;
19942;SDS011;10133;50.956;17.276;2023-02-10T11:16:42;46.83;;;20.53;;
19942;SDS011;10133;50.956;17.276;2023-02-10T11:19:20;44.33;;;19.67;;
19942;SDS011;10133;50.956;17.276;2023-02-10T11:21:50;44.23;;;20.13;;
19942;SDS011;10133;50.956;17.276;2023-02-10T11:24:20;43.93;;;20.87;;
19942;SDS011;10133;50.956;17.276;2023-02-10T11:26:57;48.43;;;20.17;;
19942;SDS011;10133;50.956;17.276;2023-02-10T11:29:34;51.53;;;22.10;;
19942;SDS011;10133;50.956;17.276;2023-02-10T11:32:18;44.70;;;21.20;;
19942;SDS011;10133;50.956;17.276;2023-02-10T11:34:56;46.43;;;21.20;;
19942;SDS011;10133;50.956;17.276;2023-02-10T11:37:26;45.20;;;20.53;;
19942;SDS011;10133;50.956;17.276;2023-02-10T11:40:04;51.40;;;21.30;;
19942;SDS011;10133;50.956;17.276;2023-02-10T11:42:45;45.53;;;19.40;;
19942;SDS011;10133;50.956;17.276;2023-02-10T11:45:19;47.30;;;19.37;;
19942;SDS011;10133;50.956;17.276;2023-02-10T11:47:59;41.40;;;18.63;;
19942;SDS011;10133;50.956;17.276;2023-02-10T11:50:32;42.63;;;19.27;;
19942;SDS011;10133;50.956;17.276;2023-02-10T11:53:01;44.47;;;20.03;;
19942;SDS011;10133;50.956;17.276;2023-02-10T11:55:41;41.20;;;17.87;;
19942;SDS011;10133;50.956;17.276;2023-02-10T11:58:54;39.17;;;18.60;;
19942;SDS011;10133;50.956;17.276;2023-02-10T12:10:04;44.70;;;20.30;;
19942;SDS011;10133;50.956;17.276;2023-02-10T12:13:05;49.30;;;22.03;;
19942;SDS011;10133;50.956;17.276;2023-02-10T12:25:23;43.47;;;19.70;;
19942;SDS011;10133;50.956;17.276;2023-02-10T12:37:06;48.57;;;18.90;;
19942;SDS011;10133;50.956;17.276;2023-02-10T12:39:39;38.40;;;18.03;;
19942;SDS011;10133;50.956;17.276;2023-02-10T12:47:48;40.87;;;16.87;;
19942;SDS011;10133;50.956;17.276;2023-02-10T12:53:37;36.27;;;17.07;;
19942;SDS011;10133;50.956;17.276;2023-02-10T12:58:53;33.50;;;16.50;;
19942;SDS011;10133;50.956;17.276;2023-02-10T13:04:04;36.73;;;16.67;;
19942;SDS011;10133;50.956;17.276;2023-02-10T13:06:53;43.63;;;17.63;;
19942;SDS011;10133;50.956;17.276;2023-02-10T13:09:38;34.83;;;15.80;;
19942;SDS011;10133;50.956;17.276;2023-02-10T13:12:21;41.80;;;17.23;;
19942;SDS011;10133;50.956;17.276;2023-02-10T13:15:02;42.27;;;18.07;;
19942;SDS011;10133;50.956;17.276;2023-02-10T13:17:41;36.17;;;17.80;;
19942;SDS011;10133;50.956;17.276;2023-02-10T13:34:11;36.00;;;18.30;;
19942;SDS011;10133;50.956;17.276;2023-02-10T13:36:40;36.27;;;18.00;;
19942;SDS011;10133;50.956;17.276;2023-02-10T13:39:16;38.70;;;17.60;;
19942;SDS011;10133;50.956;17.276;2023-02-10T13:41:51;35.43;;;16.67;;
19942;SDS011;10133;50.956;17.276;2023-02-10T13:44:33;33.43;;;15.93;;
19942;SDS011;10133;50.956;17.276;2023-02-10T13:49:50;31.00;;;16.13;;
19942;SDS011;10133;50.956;17.276;2023-02-10T13:52:22;33.17;;;15.03;;
19942;SDS011;10133;50.956;17.276;2023-02-10T13:57:33;27.37;;;13.20;;
19942;SDS011;10133;50.956;17.276;2023-02-10T14:00:14;31.00;;;13.60;;
19942;SDS011;10133;50.956;17.276;2023-02-10T14:02:43;29.67;;;13.43;;
19942;SDS011;10133;50.956;17.276;2023-02-10T14:05:22;29.33;;;13.20;;
19942;SDS011;10133;50.956;17.276;2023-02-10T14:07:51;30.03;;;14.10;;
19942;SDS011;10133;50.956;17.276;2023-02-10T14:15:54;26.70;;;13.40;;
19942;SDS011;10133;50.956;17.276;2023-02-10T14:18:30;28.83;;;12.13;;
19942;SDS011;10133;50.956;17.276;2023-02-10T14:21:06;30.27;;;13.37;;
19942;SDS011;10133;50.956;17.276;2023-02-10T14:23:57;25.77;;;12.30;;
19942;SDS011;10133;50.956;17.276;2023-02-10T14:26:28;28.00;;;12.10;;
19942;SDS011;10133;50.956;17.276;2023-02-10T14:29:00;27.00;;;11.77;;
19942;SDS011;10133;50.956;17.276;2023-02-10T14:31:35;27.33;;;11.67;;
19942;SDS011;10133;50.956;17.276;2023-02-10T14:34:15;27.10;;;11.40;;
19942;SDS011;10133;50.956;17.276;2023-02-10T14:37:34;31.37;;;12.47;;
19942;SDS011;10133;50.956;17.276;2023-02-10T14:39:53;24.93;;;11.27;;
19942;SDS011;10133;50.956;17.276;2023-02-10T14:42:29;31.57;;;11.70;;
19942;SDS011;10133;50.956;17.276;2023-02-10T14:44:58;27.43;;;11.80;;
19942;SDS011;10133;50.956;17.276;2023-02-10T14:49:56;30.00;;;12.17;;
19942;SDS011;10133;50.956;17.276;2023-02-10T14:52:24;24.10;;;11.07;;
19942;SDS011;10133;50.956;17.276;2023-02-10T14:55:20;26.97;;;11.07;;
19942;SDS011;10133;50.956;17.276;2023-02-10T14:57:50;21.70;;;10.60;;
19942;SDS011;10133;50.956;17.276;2023-02-10T15:00:18;20.67;;;9.13;;
19942;SDS011;10133;50.956;17.276;2023-02-10T15:02:47;25.50;;;10.30;;
19942;SDS011;10133;50.956;17.276;2023-02-10T15:05:18;30.27;;;10.40;;
19942;SDS011;10133;50.956;17.276;2023-02-10T15:07:48;19.50;;;9.00;;
19942;SDS011;10133;50.956;17.276;2023-02-10T15:10:32;22.47;;;8.70;;
19942;SDS011;10133;50.956;17.276;2023-02-10T15:13:02;18.83;;;8.97;;
19942;SDS011;10133;50.956;17.276;2023-02-10T15:15:37;19.40;;;8.90;;
19942;SDS011;10133;50.956;17.276;2023-02-10T15:20:53;26.40;;;9.73;;
19942;SDS011;10133;50.956;17.276;2023-02-10T15:23:25;20.80;;;9.30;;
19942;SDS011;10133;50.956;17.276;2023-02-10T15:26:20;24.60;;;10.63;;
19942;SDS011;10133;50.956;17.276;2023-02-10T15:28:58;20.93;;;9.80;;
19942;SDS011;10133;50.956;17.276;2023-02-10T15:31:31;27.23;;;10.87;;
19942;SDS011;10133;50.956;17.276;2023-02-10T15:33:59;32.33;;;11.87;;
19942;SDS011;10133;50.956;17.276;2023-02-10T15:36:35;33.47;;;11.63;;
19942;SDS011;10133;50.956;17.276;2023-02-10T15:46:46;32.37;;;11.50;;
19942;SDS011;10133;50.956;17.276;2023-02-10T15:49:16;30.67;;;10.60;;
19942;SDS011;10133;50.956;17.276;2023-02-10T15:51:51;27.23;;;11.37;;
19942;SDS011;10133;50.956;17.276;2023-02-10T15:54:20;28.40;;;11.33;;
19942;SDS011;10133;50.956;17.276;2023-02-10T15:56:59;24.03;;;10.70;;
19942;SDS011;10133;50.956;17.276;2023-02-10T15:59:31;29.60;;;11.40;;
19942;SDS011;10133;50.956;17.276;2023-02-10T16:02:02;30.17;;;11.07;;
19942;SDS011;10133;50.956;17.276;2023-02-10T16:04:32;30.03;;;12.73;;
19942;SDS011;10133;50.956;17.276;2023-02-10T16:06:59;40.17;;;13.13;;
19942;SDS011;10133;50.956;17.276;2023-02-10T16:09:27;34.77;;;13.17;;
19942;SDS011;10133;50.956;17.276;2023-02-10T16:11:57;33.50;;;12.67;;
19942;SDS011;10133;50.956;17.276;2023-02-10T16:14:25;33.03;;;12.63;;
19942;SDS011;10133;50.956;17.276;2023-02-10T16:16:53;28.43;;;13.17;;
19942;SDS011;10133;50.956;17.276;2023-02-10T16:19:22;30.03;;;12.80;;
19942;SDS011;10133;50.956;17.276;2023-02-10T16:21:50;27.70;;;11.53;;
19942;SDS011;10133;50.956;17.276;2023-02-10T16:24:23;27.33;;;11.60;;
19942;SDS011;10133;50.956;17.276;2023-02-10T16:26:52;28.53;;;11.60;;
19942;SDS011;10133;50.956;17.276;2023-02-10T16:29:21;30.40;;;12.23;;
19942;SDS011;10133;50.956;17.276;2023-02-10T16:31:50;26.27;;;10.60;;
19942;SDS011;10133;50.956;17.276;2023-02-10T16:34:17;21.87;;;10.47;;
19942;SDS011;10133;50.956;17.276;2023-02-10T16:36:44;20.60;;;9.43;;
19942;SDS011;10133;50.956;17.276;2023-02-10T16:39:15;24.03;;;9.77;;
19942;SDS011;10133;50.956;17.276;2023-02-10T16:41:47;24.17;;;11.13;;
19942;SDS011;10133;50.956;17.276;2023-02-10T16:44:15;27.67;;;10.40;;